Time;durP1;ratioP1;P1;durP2;ratioP2;P2;SDS_P1;SDS_P2;PMS_P1;PMS_P2;Temp;Humidity;BMP_temperature;BMP_pressure;BME280_temperature;BME280_humidity;BME280_pressure;Samples;Min_cycle;Max_cycle;Signal;HPM_P1;HPM_P2
2023/05/16 00:01:20;;;;;;;3.50;2.67;;;;;;;10.81;100.00;96292.94;5064479;28;20195;-60
2023/05/16 00:03:47;;;;;;;2.70;2.50;;;;;;;10.83;100.00;96300.72;5064434;28;20217;-60
2023/05/16 00:06:14;;;;;;;3.23;2.93;;;;;;;10.88;100.00;96303.72;5056361;28;20199;-60
2023/05/16 00:08:42;;;;;;;3.20;2.90;;;;;;;10.90;100.00;96301.78;5058724;28;20658;-59
2023/05/16 00:11:08;;;;;;;2.50;2.30;;;;;;;10.93;100.00;96297.00;5076042;28;20213;-59
2023/05/16 00:13:35;;;;;;;2.60;2.50;;;;;;;10.94;100.00;96298.69;5076062;28;20206;-60
2023/05/16 00:16:03;;;;;;;3.37;3.03;;;;;;;10.93;100.00;96297.00;5060418;28;20209;-60
2023/05/16 00:18:30;;;;;;;3.90;3.43;;;;;;;10.96;100.00;96294.06;5068478;28;20195;-59
2023/05/16 00:20:56;;;;;;;3.80;3.50;;;;;;;10.97;100.00;96297.53;5056468;28;20293;-59
2023/05/16 00:23:23;;;;;;;3.87;3.57;;;;;;;11.05;100.00;96300.25;5056110;28;20730;-59
2023/05/16 00:25:51;;;;;;;4.13;3.83;;;;;;;11.09;100.00;96285.69;5065080;28;20548;-60
2023/05/16 00:28:17;;;;;;;4.60;4.30;;;;;;;11.06;100.00;96287.81;5055514;28;20690;-59
2023/05/16 00:30:43;;;;;;;5.63;4.70;;;;;;;11.08;100.00;96278.78;5056229;28;20222;-60
2023/05/16 00:33:10;;;;;;;5.27;4.87;;;;;;;11.05;100.00;96278.25;5055984;28;20239;-57
2023/05/16 00:35:36;;;;;;;5.03;4.73;;;;;;;11.05;100.00;96283.53;5055836;28;20226;-60
2023/05/16 00:38:03;;;;;;;6.73;4.40;;;;;;;11.06;100.00;96285.19;5055781;28;20211;-60
2023/05/16 00:40:30;;;;;;;4.67;4.30;;;;;;;11.06;100.00;96278.06;5060632;28;20207;-60
2023/05/16 00:42:58;;;;;;;13.73;4.03;;;;;;;11.07;100.00;96287.69;5055316;28;20198;-60
2023/05/16 00:45:24;;;;;;;3.97;3.77;;;;;;;11.11;100.00;96273.16;5056083;28;20560;-60
2023/05/16 00:47:51;;;;;;;3.87;3.67;;;;;;;11.09;100.00;96285.69;5055448;28;20287;-60
2023/05/16 00:50:18;;;;;;;3.73;3.33;;;;;;;11.07;100.00;96276.25;5055953;28;20210;-60
2023/05/16 00:52:44;;;;;;;3.73;3.43;;;;;;;11.05;100.00;96272.97;5055636;28;20227;-59
2023/05/16 00:55:11;;;;;;;4.07;3.47;;;;;;;11.00;100.00;96284.00;5055898;28;20211;-60
2023/05/16 00:57:38;;;;;;;6.73;3.40;;;;;;;11.03;100.00;96277.56;5055721;28;20211;-59
2023/05/16 01:00:08;;;;;;;3.30;3.03;;;;;;;11.06;100.00;96277.25;5054643;28;20207;-60
2023/05/16 01:02:35;;;;;;;3.60;3.30;;;;;;;11.05;100.00;96273.78;5055601;28;20536;-60
2023/05/16 01:05:02;;;;;;;3.33;3.10;;;;;;;11.03;100.00;96269.63;5055881;28;20234;-59
2023/05/16 01:07:29;;;;;;;3.33;3.13;;;;;;;11.01;100.00;96271.59;5057082;28;20214;-61
2023/05/16 01:09:56;;;;;;;3.47;3.13;;;;;;;11.02;100.00;96273.28;5055432;28;20211;-60
2023/05/16 01:12:28;;;;;;;3.20;3.00;;;;;;;11.00;100.00;96268.13;5054995;28;20680;-60
2023/05/16 01:14:59;;;;;;;3.40;3.20;;;;;;;11.04;100.00;96266.00;5055336;28;20272;-59
2023/05/16 01:17:32;;;;;;;3.57;3.27;;;;;;;11.04;100.00;96266.84;5061409;28;20199;-60
2023/05/16 01:20:05;;;;;;;3.43;2.97;;;;;;;11.07;100.00;96263.03;5063560;28;20536;-60
2023/05/16 01:22:39;;;;;;;3.10;2.90;;;;;;;11.08;100.00;96262.06;5055092;28;20309;-59
2023/05/16 01:25:12;;;;;;;3.70;3.50;;;;;;;11.08;100.00;96264.72;5066377;28;20263;-59
2023/05/16 01:27:40;;;;;;;3.80;3.13;;;;;;;11.07;100.00;96261.22;5054945;28;20747;-60
2023/05/16 01:30:13;;;;;;;3.30;3.10;;;;;;;11.11;100.00;96259.09;5054501;28;20691;-60
2023/05/16 01:32:40;;;;;;;4.13;3.37;;;;;;;11.11;100.00;96264.41;5054818;28;20257;-60
2023/05/16 01:35:08;;;;;;;3.27;2.97;;;;;;;11.10;100.00;96260.91;5055069;28;20261;-60
2023/05/16 01:37:37;;;;;;;4.63;3.20;;;;;;;11.11;100.00;96261.75;5055123;28;20207;-61
2023/05/16 01:40:06;;;;;;;3.43;3.20;;;;;;;11.10;100.00;96260.91;5060176;28;20210;-60
2023/05/16 01:42:34;;;;;;;3.57;3.30;;;;;;;11.10;100.00;96265.38;5055102;28;20807;-60
2023/05/16 01:45:06;;;;;;;3.83;3.50;;;;;;;11.12;100.00;96258.13;5061049;28;20206;-60
2023/05/16 01:47:33;;;;;;;3.57;3.27;;;;;;;11.12;100.00;96260.78;5063775;28;20203;-60
2023/05/16 01:50:04;;;;;;;3.60;3.30;;;;;;;11.12;100.00;96250.19;5054605;28;20221;-60
2023/05/16 01:52:35;;;;;;;3.73;3.40;;;;;;;11.09;100.00;96247.84;5055133;28;20218;-60
2023/05/16 01:55:03;;;;;;;3.43;3.13;;;;;;;11.14;100.00;96256.13;5067574;28;20199;-60
2023/05/16 01:57:30;;;;;;;3.37;3.17;;;;;;;11.14;100.00;96256.97;5055182;28;20272;-58
2023/05/16 01:59:56;;;;;;;3.30;3.10;;;;;;;11.14;100.00;96254.31;5054114;28;20207;-60
2023/05/16 02:02:24;;;;;;;3.53;3.23;;;;;;;11.11;100.00;96259.09;5055407;28;20210;-57
2023/05/16 02:04:51;;;;;;;3.70;3.37;;;;;;;11.11;100.00;96248.50;5054815;28;20211;-60
2023/05/16 02:07:17;;;;;;;3.47;3.17;;;;;;;11.12;100.00;96247.53;5056482;28;20203;-59
2023/05/16 02:09:43;;;;;;;3.40;3.20;;;;;;;11.10;100.00;96241.56;5054280;28;20207;-60
2023/05/16 02:12:10;;;;;;;3.70;3.50;;;;;;;11.11;100.00;96251.16;5055117;28;20231;-59
2023/05/16 02:14:36;;;;;;;4.07;3.30;;;;;;;11.09;100.00;96246.00;5054451;28;20207;-60
2023/05/16 02:17:03;;;;;;;3.20;3.00;;;;;;;11.10;100.00;96250.31;5055060;28;20215;-60
2023/05/16 02:19:30;;;;;;;4.80;3.27;;;;;;;11.11;100.00;96245.88;5054011;28;20639;-60
2023/05/16 02:21:57;;;;;;;3.37;3.10;;;;;;;11.08;100.00;96243.53;5055019;28;20227;-60
2023/05/16 02:24:24;;;;;;;3.80;3.43;;;;;;;11.10;100.00;96245.03;5061762;28;20199;-60
2023/05/16 02:26:50;;;;;;;4.47;3.07;;;;;;;11.12;100.00;96247.53;5059440;28;20632;-60
2023/05/16 02:29:16;;;;;;;3.50;3.30;;;;;;;11.13;100.00;96239.44;5061650;28;20523;-60
2023/05/16 02:31:43;;;;;;;3.20;3.00;;;;;;;11.15;100.00;96248.06;5059577;28;20215;-60
2023/05/16 02:34:09;;;;;;;4.43;4.13;;;;;;;11.17;100.00;96245.22;5054160;28;20218;-60
2023/05/16 02:36:38;;;;;;;4.00;3.70;;;;;;;11.22;100.00;96241.16;5055255;28;20295;-59
2023/05/16 02:39:04;;;;;;;4.30;3.90;;;;;;;11.21;100.00;96244.78;5054309;28;20207;-60
2023/05/16 02:41:32;;;;;;;3.67;3.37;;;;;;;11.23;100.00;96249.94;5057848;28;20512;-60
2023/05/16 02:43:58;;;;;;;3.50;3.30;;;;;;;11.20;100.00;96242.28;5054583;28;20202;-60
2023/05/16 02:46:26;;;;;;;3.77;3.47;;;;;;;11.24;100.00;96241.81;5054153;28;20219;-60
2023/05/16 02:48:53;;;;;;;4.40;4.10;;;;;;;11.26;100.00;96239.03;5054255;28;20203;-60
2023/05/16 02:51:20;;;;;;;4.67;4.37;;;;;;;11.23;100.00;96229.56;5054250;28;20215;-60
2023/05/16 02:53:48;;;;;;;4.90;4.50;;;;;;;11.23;100.00;96229.56;5054284;28;20244;-59
2023/05/16 02:56:14;;;;;;;4.80;4.40;;;;;;;11.23;100.00;96229.56;5054881;28;20202;-60
2023/05/16 02:58:41;;;;;;;5.07;4.50;;;;;;;11.23;100.00;96223.47;5055256;28;20199;-60
2023/05/16 03:01:08;;;;;;;4.73;4.40;;;;;;;11.22;100.00;96227.09;5055437;28;20690;-60
2023/05/16 03:03:35;;;;;;;4.77;4.37;;;;;;;11.18;100.00;96225.72;5056635;28;20203;-60
2023/05/16 03:06:01;;;;;;;5.13;4.73;;;;;;;11.19;100.00;96227.41;5057844;28;20203;-60
2023/05/16 03:08:28;;;;;;;4.87;4.57;;;;;;;11.16;100.00;96222.44;5070223;28;20664;-59
2023/05/16 03:10:56;;;;;;;5.60;5.07;;;;;;;11.18;100.00;96225.72;5074822;28;20657;-60
2023/05/16 03:13:22;;;;;;;6.03;5.53;;;;;;;11.18;100.00;96225.72;5064930;28;20227;-61
2023/05/16 03:15:48;;;;;;;5.63;5.13;;;;;;;11.14;100.00;96224.38;5056560;28;20218;-60
2023/05/16 03:18:15;;;;;;;6.47;5.13;;;;;;;11.17;100.00;96224.91;5069955;28;20535;-59
2023/05/16 03:20:41;;;;;;;5.20;4.67;;;;;;;11.19;100.00;96222.09;5057249;28;20513;-60
2023/05/16 03:23:08;;;;;;;6.23;5.70;;;;;;;11.22;100.00;96221.78;5057028;28;20242;-60
2023/05/16 03:25:35;;;;;;;7.40;6.60;;;;;;;11.22;100.00;96224.44;5069576;28;20252;-59
2023/05/16 03:28:03;;;;;;;9.40;8.60;;;;;;;11.24;100.00;96230.38;5057728;28;20227;-60
2023/05/16 03:30:29;;;;;;;8.50;7.60;;;;;;;11.24;100.00;96228.56;5057289;28;20643;-59
2023/05/16 03:32:56;;;;;;;8.00;7.30;;;;;;;11.24;100.00;96225.94;5057251;28;20219;-59
2023/05/16 03:35:23;;;;;;;7.77;6.97;;;;;;;11.28;100.00;96221.16;5057100;28;20200;-60
2023/05/16 03:37:49;;;;;;;6.90;6.30;;;;;;;11.30;100.00;96212.06;5057237;28;20219;-59
2023/05/16 03:40:16;;;;;;;6.30;5.70;;;;;;;11.30;100.00;96212.06;5063522;28;20199;-59
2023/05/16 03:42:43;;;;;;;7.53;6.67;;;;;;;11.29;100.00;96206.94;5057395;28;20199;-58
2023/05/16 03:45:11;;;;;;;6.33;5.83;;;;;;;11.30;100.00;96216.53;5057637;28;20210;-59
2023/05/16 03:47:38;;;;;;;6.60;6.00;;;;;;;11.21;100.00;96220.13;5068613;28;20214;-59
2023/05/16 03:50:05;;;;;;;6.50;6.00;;;;;;;11.20;100.00;96223.75;5076527;28;20210;-59
2023/05/16 03:52:32;;;;;;;6.60;5.97;;;;;;;11.21;100.00;96225.41;5064164;28;20226;-59
2023/05/16 03:55:00;;;;;;;6.70;6.10;;;;;;;11.19;100.00;96222.94;5057304;28;20218;-60
2023/05/16 03:57:27;;;;;;;7.23;6.47;;;;;;;11.17;100.00;96229.34;5057119;28;20250;-60
2023/05/16 03:59:53;;;;;;;7.57;6.77;;;;;;;11.21;100.00;96231.53;5056805;28;20225;-59
2023/05/16 04:02:21;;;;;;;6.97;6.47;;;;;;;11.22;100.00;96232.38;5076223;28;20218;-58
2023/05/16 04:04:48;;;;;;;7.70;7.00;;;;;;;11.25;100.00;96232.06;5057488;28;20211;-59
2023/05/16 04:07:14;;;;;;;8.33;7.47;;;;;;;11.28;100.00;96237.03;5059385;28;20211;-58
2023/05/16 04:09:42;;;;;;;8.80;8.00;;;;;;;11.29;100.00;96230.75;5057168;28;20207;-59
2023/05/16 04:12:08;;;;;;;9.10;7.63;;;;;;;11.29;100.00;96238.69;5056601;28;20203;-60
2023/05/16 04:14:35;;;;;;;9.93;8.93;;;;;;;11.29;100.00;96233.41;5056433;28;20231;-59
2023/05/16 04:17:01;;;;;;;9.60;8.70;;;;;;;11.29;100.00;96238.69;5056994;28;20531;-59
2023/05/16 04:19:29;;;;;;;9.17;8.37;;;;;;;11.33;100.00;96237.41;5069309;28;20213;-58
2023/05/16 04:21:56;;;;;;;11.40;10.20;;;;;;;11.34;100.00;96242.53;5062472;28;20305;-59
2023/05/16 04:24:25;;;;;;;12.20;10.80;;;;;;;11.33;100.00;96240.06;5057151;28;20203;-59
2023/05/16 04:26:51;;;;;;;12.00;10.77;;;;;;;11.36;100.00;96234.44;5056447;28;20203;-57
2023/05/16 04:29:18;;;;;;;11.60;10.50;;;;;;;11.38;100.00;96245.69;5056112;28;20218;-59
2023/05/16 04:31:45;;;;;;;14.90;10.80;;;;;;;11.39;100.00;96240.25;5056393;28;20207;-59
2023/05/16 04:34:12;;;;;;;11.93;10.73;;;;;;;11.40;100.00;96243.72;5056333;28;20231;-60
2023/05/16 04:36:40;;;;;;;13.07;11.87;;;;;;;11.45;100.00;96242.25;5057207;28;20199;-60
2023/05/16 04:39:07;;;;;;;12.40;11.27;;;;;;;11.45;100.00;96238.78;5066012;28;20321;-60
2023/05/16 04:41:35;;;;;;;12.97;11.77;;;;;;;11.51;100.00;96240.81;5061548;28;20237;-60
2023/05/16 04:44:02;;;;;;;12.53;11.33;;;;;;;11.53;100.00;96241.47;5056871;28;20203;-60
2023/05/16 04:46:29;;;;;;;12.83;11.63;;;;;;;11.54;100.00;96248.44;5061412;28;20207;-59
2023/05/16 04:48:56;;;;;;;13.37;11.97;;;;;;;11.57;100.00;96250.75;5063977;28;20199;-59
2023/05/16 04:51:23;;;;;;;12.20;11.10;;;;;;;11.56;100.00;96241.16;5073283;28;20604;-59
2023/05/16 04:53:51;;;;;;;12.63;11.53;;;;;;;11.61;100.00;96246.81;5069265;28;20697;-60
2023/05/16 04:56:17;;;;;;;13.33;12.10;;;;;;;11.63;100.00;96249.28;5072433;28;20199;-59
2023/05/16 04:58:44;;;;;;;12.47;11.37;;;;;;;11.67;100.00;96248.81;5080660;28;20274;-59
2023/05/16 05:01:10;;;;;;;14.50;13.10;;;;;;;11.68;100.00;96247.00;5081294;28;20294;-59
2023/05/16 05:03:37;;;;;;;13.87;12.53;;;;;;;11.73;100.00;96250.00;5083725;28;20195;-59
2023/05/16 05:06:03;;;;;;;12.87;11.67;;;;;;;11.74;100.00;96241.09;5075378;28;20203;-60
2023/05/16 05:08:30;;;;;;;12.03;10.93;;;;;;;11.79;100.00;96250.22;5084567;28;20194;-59
2023/05/16 05:10:58;;;;;;;12.30;11.10;;;;;;;11.74;100.00;96249.88;5072638;28;20214;-61
2023/05/16 05:13:24;;;;;;;12.53;11.33;;;;;;;11.80;100.00;96251.88;5068767;28;20229;-60
2023/05/16 05:15:51;;;;;;;13.97;12.67;;;;;;;11.78;100.00;96260.97;5078386;28;20209;-59
2023/05/16 05:18:18;;;;;;;11.70;10.70;;;;;;;11.86;100.00;96253.06;5084946;28;20191;-60
2023/05/16 05:20:44;;;;;;;10.87;9.87;;;;;;;11.99;100.00;96248.13;5095177;28;20206;-60
2023/05/16 05:23:11;;;;;;;12.77;11.57;;;;;;;12.04;100.00;96255.59;5096515;28;20222;-61
2023/05/16 05:25:38;;;;;;;12.73;11.63;;;;;;;12.04;100.00;96256.44;5081301;28;20210;-67
2023/05/16 05:28:06;;;;;;;11.90;10.67;;;;;;;12.26;100.00;96261.09;5093785;28;20213;-60
2023/05/16 05:30:33;;;;;;;12.17;11.17;;;;;;;12.18;100.00;96253.16;5095333;28;20226;-60
2023/05/16 05:32:59;;;;;;;12.80;11.50;;;;;;;12.16;100.00;96257.78;5096623;28;20233;-60
2023/05/16 05:35:26;;;;;;;11.93;10.83;;;;;;;12.13;100.00;96257.28;5073652;28;20203;-60
2023/05/16 05:37:52;;;;;;;12.40;11.30;;;;;;;12.11;100.00;96264.56;5055365;28;20207;-60
2023/05/16 05:40:20;;;;;;;11.80;10.70;;;;;;;12.12;100.00;96258.25;5058893;28;20203;-60
2023/05/16 05:42:47;;;;;;;12.27;11.17;;;;;;;12.18;100.00;96252.31;5054783;28;20211;-59
2023/05/16 05:45:14;;;;;;;10.73;9.83;;;;;;;12.18;100.00;96253.16;5055110;28;20211;-60
2023/05/16 05:47:41;;;;;;;11.60;10.43;;;;;;;12.20;100.00;96259.13;5054886;28;20234;-61
2023/05/16 05:50:11;;;;;;;11.07;10.10;;;;;;;12.18;100.00;96252.31;5055037;28;20211;-60
2023/05/16 05:52:38;;;;;;;11.97;10.77;;;;;;;12.19;100.00;96259.25;5064849;28;20213;-59
2023/05/16 05:55:05;;;;;;;12.23;11.00;;;;;;;12.20;100.00;96252.97;5054738;28;20235;-60
2023/05/16 05:57:32;;;;;;;12.57;11.33;;;;;;;12.27;100.00;96261.94;5054638;28;20520;-60
2023/05/16 05:59:58;;;;;;;12.27;11.13;;;;;;;12.28;100.00;96266.25;5054460;28;20211;-60
2023/05/16 06:02:27;;;;;;;11.70;10.73;;;;;;;12.32;100.00;96264.94;5055278;28;20622;-61
2023/05/16 06:04:53;;;;;;;11.67;10.67;;;;;;;12.24;100.00;96267.56;5074428;28;20206;-60
2023/05/16 06:07:21;;;;;;;12.97;11.67;;;;;;;12.25;100.00;96263.94;5062901;28;20538;-61
2023/05/16 06:09:47;;;;;;;11.43;10.53;;;;;;;12.28;100.00;96263.63;5053907;28;20215;-60
2023/05/16 06:12:14;;;;;;;11.80;10.73;;;;;;;12.24;100.00;96264.94;5054583;28;20218;-60
2023/05/16 06:14:40;;;;;;;11.83;10.67;;;;;;;12.20;100.00;96268.88;5053758;28;20227;-60
2023/05/16 06:17:06;;;;;;;12.47;11.27;;;;;;;12.19;100.00;96267.22;5054282;28;20625;-59
2023/05/16 06:19:34;;;;;;;12.10;11.10;;;;;;;12.18;100.00;96269.06;5054221;28;20556;-60
2023/05/16 06:22:01;;;;;;;11.50;10.40;;;;;;;12.16;100.00;96275.50;5053971;28;20234;-60
2023/05/16 06:24:28;;;;;;;11.73;10.60;;;;;;;12.21;100.00;96275.84;5060088;28;20195;-60
2023/05/16 06:26:55;;;;;;;12.70;11.50;;;;;;;12.26;100.00;96282.31;5059255;28;20210;-60
2023/05/16 06:29:22;;;;;;;11.90;10.73;;;;;;;12.20;100.00;96280.31;5053612;28;20218;-60
2023/05/16 06:31:48;;;;;;;11.63;10.60;;;;;;;12.28;100.00;96279.53;5054184;28;20243;-61
2023/05/16 06:34:15;;;;;;;12.23;11.03;;;;;;;12.18;100.00;96290.28;5054229;28;20242;-61
2023/05/16 06:36:43;;;;;;;10.33;9.47;;;;;;;12.19;100.00;96283.13;5054017;28;20211;-60
2023/05/16 06:39:09;;;;;;;11.50;10.33;;;;;;;12.16;100.00;96283.44;5054478;28;20242;-60
2023/05/16 06:41:36;;;;;;;10.97;10.07;;;;;;;12.14;100.00;96278.34;5054024;28;20210;-61
2023/05/16 06:44:03;;;;;;;11.13;10.23;;;;;;;12.17;100.00;96282.47;5053836;28;20207;-60
2023/05/16 06:46:30;;;;;;;11.60;10.60;;;;;;;12.19;100.00;96280.47;5054137;28;20203;-60
2023/05/16 06:48:56;;;;;;;12.47;11.20;;;;;;;12.16;100.00;96271.03;5054757;28;20203;-61
2023/05/16 06:51:23;;;;;;;13.57;12.27;;;;;;;12.19;100.00;96273.34;5055295;28;20233;-59
2023/05/16 06:53:51;;;;;;;13.10;11.80;;;;;;;12.18;100.00;96278.84;5058091;28;20223;-60
2023/05/16 06:56:18;;;;;;;13.37;12.03;;;;;;;12.14;100.00;96274.84;5058082;28;20207;-60
2023/05/16 06:58:44;;;;;;;13.87;12.57;;;;;;;12.13;100.00;96274.00;5057610;28;20206;-61
2023/05/16 07:01:11;;;;;;;14.53;13.00;;;;;;;12.17;100.00;96282.47;5058065;28;20215;-60
2023/05/16 07:03:37;;;;;;;14.17;12.87;;;;;;;12.18;100.00;96287.63;5058280;28;20616;-60
2023/05/16 07:06:04;;;;;;;15.50;14.03;;;;;;;12.14;100.00;96288.94;5058000;28;20218;-60
2023/05/16 07:08:30;;;;;;;14.60;13.10;;;;;;;12.19;100.00;96283.13;5059054;28;20708;-59
2023/05/16 07:10:58;;;;;;;17.00;15.30;;;;;;;12.20;100.00;96287.44;5057446;28;20206;-61
2023/05/16 07:13:25;;;;;;;15.87;14.47;;;;;;;12.22;100.00;96288.13;5056930;28;20661;-60
2023/05/16 07:15:51;;;;;;;15.60;14.03;;;;;;;12.23;100.00;96287.13;5061461;28;20210;-60
2023/05/16 07:18:18;;;;;;;15.97;14.37;;;;;;;12.26;100.00;96287.63;5077673;28;20271;-61
2023/05/16 07:20:44;;;;;;;15.83;14.43;;;;;;;12.30;100.00;96288.97;5059971;28;20211;-60
2023/05/16 07:23:11;;;;;;;17.40;15.70;;;;;;;12.31;100.00;96289.78;5057116;28;20671;-61
2023/05/16 07:25:37;;;;;;;17.17;15.57;;;;;;;12.35;100.00;96286.66;5068543;28;20207;-61
2023/05/16 07:28:05;;;;;;;18.27;15.33;;;;;;;12.35;100.00;96285.84;5057156;28;20211;-60
2023/05/16 07:30:33;;;;;;;16.90;15.20;;;;;;;12.39;100.00;96287.16;5057139;28;20658;-59
2023/05/16 07:32:59;;;;;;;17.60;15.10;;;;;;;12.42;100.00;96282.38;5057400;28;20513;-60
2023/05/16 07:35:26;;;;;;;16.23;14.67;;;;;;;12.47;100.00;96289.81;5056886;28;20778;-60
2023/05/16 07:37:52;;;;;;;17.07;15.30;;;;;;;12.52;100.00;96287.50;5057266;28;20207;-60
2023/05/16 07:40:20;;;;;;;17.90;16.07;;;;;;;12.54;100.00;96288.16;5056947;28;20635;-61
2023/05/16 07:42:46;;;;;;;20.43;15.63;;;;;;;12.55;100.00;96295.13;5056935;28;20596;-61
2023/05/16 07:45:14;;;;;;;16.97;15.30;;;;;;;12.63;100.00;96303.13;5056924;28;20209;-61
2023/05/16 07:47:41;;;;;;;17.40;15.67;;;;;;;12.71;100.00;96292.53;5057291;28;20206;-60
2023/05/16 07:50:08;;;;;;;17.57;15.87;;;;;;;12.79;100.00;96292.50;5056734;28;20242;-61
2023/05/16 07:52:35;;;;;;;17.60;15.80;;;;;;;12.93;100.00;96291.84;5056691;28;20239;-61
2023/05/16 07:55:01;;;;;;;18.53;16.83;;;;;;;13.09;100.00;96295.50;5056969;28;20231;-60
2023/05/16 07:57:28;;;;;;;19.10;17.10;;;;;;;13.23;100.00;96298.34;5056882;28;20207;-60
2023/05/16 07:59:55;;;;;;;19.30;17.40;;;;;;;13.43;100.00;96293.50;5055702;28;20222;-61
2023/05/16 08:02:25;;;;;;;20.63;18.53;;;;;;;13.53;100.00;96302.13;5055859;28;20203;-61
2023/05/16 08:04:51;;;;;;;20.80;18.80;;;;;;;13.68;100.00;96296.91;5056544;28;20616;-60
2023/05/16 08:07:18;;;;;;;20.23;18.23;;;;;;;13.77;100.00;96302.06;5058397;28;20203;-61
2023/05/16 08:09:44;;;;;;;20.73;18.63;;;;;;;13.79;100.00;96300.03;5056653;28;20234;-59
2023/05/16 08:12:11;;;;;;;21.33;18.90;;;;;;;13.78;100.00;96301.03;5056794;28;20229;-61
2023/05/16 08:14:37;;;;;;;21.60;19.33;;;;;;;13.78;100.00;96295.72;5056099;28;20292;-60
2023/05/16 08:17:06;;;;;;;21.97;18.27;;;;;;;13.69;100.00;96303.91;5056620;28;20207;-61
2023/05/16 08:19:34;;;;;;;20.80;18.67;;;;;;;13.71;100.00;96307.22;5056464;28;20555;-61
2023/05/16 08:22:01;;;;;;;21.87;19.57;;;;;;;13.62;100.00;96303.75;5056494;28;20269;-61
2023/05/16 08:24:28;;;;;;;21.43;18.93;;;;;;;13.60;100.00;96295.13;5062110;28;20599;-60
2023/05/16 08:26:54;;;;;;;21.80;19.17;;;;;;;13.65;100.00;96297.25;5059540;28;20222;-60
2023/05/16 08:29:21;;;;;;;21.27;19.13;;;;;;;13.72;100.00;96296.41;5055948;28;20272;-61
2023/05/16 08:31:48;;;;;;;22.90;20.20;;;;;;;13.69;100.00;96302.06;5056502;28;20543;-60
2023/05/16 08:34:14;;;;;;;22.25;20.05;;;;;;;13.63;100.00;96299.28;5056378;28;20621;-61
2023/05/16 08:36:42;;;;;;;23.17;20.67;;;;;;;13.65;100.00;96297.25;5056148;28;20276;-60
2023/05/16 08:39:10;;;;;;;22.13;19.87;;;;;;;13.69;100.00;96302.06;5056155;28;20211;-61
2023/05/16 08:41:37;;;;;;;25.37;21.33;;;;;;;13.69;100.00;96303.91;5056038;28;20211;-60
2023/05/16 08:44:04;;;;;;;23.30;20.80;;;;;;;13.64;100.00;96299.09;5055826;28;20206;-60
2023/05/16 08:46:33;;;;;;;23.53;21.07;;;;;;;13.69;100.00;96294.09;5055709;28;20252;-60
2023/05/16 08:49:02;;;;;;;23.60;20.43;;;;;;;13.65;100.00;96306.06;5066404;28;20199;-60
2023/05/16 08:51:33;;;;;;;24.27;21.67;;;;;;;13.62;100.00;96311.72;5071628;28;20203;-61
2023/05/16 08:54:03;;;;;;;23.03;20.50;;;;;;;13.69;100.00;96307.38;5056898;28;20203;-61
2023/05/16 08:56:31;;;;;;;25.27;22.47;;;;;;;13.67;100.00;96305.91;5056724;28;20202;-62
2023/05/16 08:58:58;;;;;;;24.53;21.80;;;;;;;13.52;100.00;96307.59;5056511;28;20203;-60
2023/05/16 09:01:24;;;;;;;26.47;21.20;;;;;;;13.60;100.00;96302.28;5056516;28;20211;-61
2023/05/16 09:03:52;;;;;;;25.00;22.00;;;;;;;13.67;100.00;96300.59;5055490;28;20230;-60
2023/05/16 09:06:18;;;;;;;25.73;21.40;;;;;;;13.61;100.00;96295.94;5055495;28;20210;-60
2023/05/16 09:08:45;;;;;;;26.02;21.30;;;;;;;13.70;100.00;96297.59;5057458;28;20199;-60
2023/05/16 09:11:13;;;;;;;23.13;20.73;;;;;;;13.65;100.00;96295.44;5055312;28;20648;-60
2023/05/16 09:13:40;;;;;;;21.88;19.65;;;;;;;13.69;100.00;96290.59;5054654;28;20210;-60
2023/05/16 09:16:11;;;;;;;22.43;20.07;;;;;;;13.59;100.00;96293.47;5054784;28;20238;-60
2023/05/16 09:18:38;;;;;;;22.97;20.67;;;;;;;13.71;100.00;96294.75;5055310;28;20214;-61
2023/05/16 09:21:06;;;;;;;24.23;21.63;;;;;;;13.73;100.00;96287.44;5055399;28;20207;-60
2023/05/16 09:23:33;;;;;;;24.93;21.87;;;;;;;13.76;100.00;96284.44;5054701;28;20250;-62
2023/05/16 09:25:59;;;;;;;24.13;21.53;;;;;;;13.78;100.00;96294.91;5065671;28;20199;-60
2023/05/16 09:28:27;;;;;;;23.90;21.40;;;;;;;13.78;100.00;96293.06;5054857;28;20215;-60
2023/05/16 09:30:57;;;;;;;22.97;20.37;;;;;;;13.86;100.00;96285.06;5056481;28;20203;-61
2023/05/16 09:33:24;;;;;;;26.17;21.53;;;;;;;13.96;100.00;96288.34;5056408;28;20632;-60
2023/05/16 09:35:56;;;;;;;24.97;21.13;;;;;;;14.06;100.00;96290.00;5054909;28;20753;-60
2023/05/16 09:38:24;;;;;;;26.07;22.70;;;;;;;14.07;100.00;96283.66;5055204;28;20309;-60
2023/05/16 09:40:51;;;;;;;25.43;21.80;;;;;;;14.07;100.00;96289.81;5055084;28;20582;-60
2023/05/16 09:43:18;;;;;;;26.67;21.80;;;;;;;14.06;100.00;96285.50;5054644;28;20215;-61
2023/05/16 09:45:48;;;;;;;25.73;21.98;;;;;;;13.93;100.00;96290.53;5055242;28;20214;-60
2023/05/16 09:48:16;;;;;;;24.63;21.97;;;;;;;13.88;100.00;96296.38;5055153;28;20199;-59
2023/05/16 09:50:48;;;;;;;29.02;23.83;;;;;;;13.92;100.00;96295.00;5054938;28;20237;-61
2023/05/16 09:53:15;;;;;;;24.37;21.80;;;;;;;13.81;100.00;96297.22;5054636;28;20207;-59
2023/05/16 09:55:41;;;;;;;27.37;23.23;;;;;;;13.68;100.00;96302.22;5054833;28;20532;-60
2023/05/16 09:58:07;;;;;;;26.93;23.33;;;;;;;13.60;100.00;96295.13;5054512;28;20222;-60
2023/05/16 10:00:34;;;;;;;28.83;23.73;;;;;;;13.51;100.00;96292.66;5054721;28;20652;-59
2023/05/16 10:03:03;;;;;;;28.60;24.17;;;;;;;13.37;100.00;96291.53;5055578;28;20643;-61
2023/05/16 10:05:29;;;;;;;32.60;26.03;;;;;;;13.22;100.00;96301.16;5054690;28;20203;-60
2023/05/16 10:07:59;;;;;;;30.30;24.90;;;;;;;13.24;100.00;96293.88;5056929;28;20652;-60
2023/05/16 10:10:27;;;;;;;29.93;25.87;;;;;;;13.20;100.00;96292.53;5054911;28;20214;-61
2023/05/16 10:12:55;;;;;;;30.97;26.20;;;;;;;13.14;100.00;96293.22;5054529;28;20307;-60
2023/05/16 10:15:21;;;;;;;33.33;27.00;;;;;;;13.08;100.00;96299.16;5054645;28;20227;-60
2023/05/16 10:17:51;;;;;;;32.10;27.13;;;;;;;13.07;100.00;96306.31;5053405;28;20245;-61
2023/05/16 10:20:20;;;;;;;29.83;25.03;;;;;;;13.08;100.00;96304.44;5054399;28;20215;-60
2023/05/16 10:22:47;;;;;;;31.43;26.17;;;;;;;13.05;100.00;96302.13;5054333;28;20274;-60
2023/05/16 10:25:20;;;;;;;29.23;26.13;;;;;;;13.05;100.00;96300.31;5065381;28;20198;-59
2023/05/16 10:27:47;;;;;;;30.67;26.37;;;;;;;13.06;100.00;96290.53;5054337;28;20292;-60
2023/05/16 10:30:16;;;;;;;33.43;28.00;;;;;;;13.08;100.00;96285.88;5054836;28;20214;-60
2023/05/16 10:32:43;;;;;;;33.50;27.37;;;;;;;13.04;100.00;96296.00;5054496;28;20207;-60
2023/05/16 10:35:11;;;;;;;31.57;27.70;;;;;;;13.08;100.00;96294.66;5054155;28;20230;-60
2023/05/16 10:37:40;;;;;;;29.63;26.30;;;;;;;13.04;100.00;96288.03;5054694;28;20241;-60
2023/05/16 10:40:08;;;;;;;29.50;26.00;;;;;;;13.03;100.00;96297.00;5063439;28;20218;-60
2023/05/16 10:42:35;;;;;;;27.90;24.90;;;;;;;12.97;100.00;96289.69;5057545;28;20285;-61
2023/05/16 10:45:09;;;;;;;28.27;24.47;;;;;;;12.95;100.00;96295.19;5056684;28;20608;-61
2023/05/16 10:47:36;;;;;;;27.27;24.50;;;;;;;12.89;100.00;96290.53;5056963;28;20217;-60
2023/05/16 10:50:03;;;;;;;22.73;20.30;;;;;;;12.90;100.00;96297.50;5071029;28;20269;-60
2023/05/16 10:52:33;;;;;;;22.67;20.13;;;;;;;12.77;100.00;96313.09;5057464;28;20218;-63
2023/05/16 10:55:04;;;;;;;26.07;22.13;;;;;;;12.70;100.00;96325.34;5057621;28;20267;-60
2023/05/16 10:57:33;;;;;;;22.33;18.60;;;;;;;12.59;100.00;96311.56;5071207;28;20190;-61
2023/05/16 11:00:00;;;;;;;18.30;16.30;;;;;;;12.57;100.00;96306.44;5061104;28;20210;-61
2023/05/16 11:02:31;;;;;;;17.00;15.30;;;;;;;12.44;100.00;96306.88;5071239;28;20212;-60
2023/05/16 11:04:59;;;;;;;16.20;14.47;;;;;;;12.39;100.00;96311.88;5078185;28;20199;-61
2023/05/16 11:07:33;;;;;;;16.43;14.20;;;;;;;12.37;100.00;96305.03;5075543;28;20225;-61
2023/05/16 11:10:06;;;;;;;17.73;15.80;;;;;;;12.29;100.00;96307.69;5063330;28;20226;-61
2023/05/16 11:12:46;;;;;;;17.10;15.03;;;;;;;12.30;100.00;96304.03;5070442;28;20656;-61
2023/05/16 11:15:24;;;;;;;16.17;14.53;;;;;;;12.26;100.00;96295.56;5054010;28;20292;-61